Time;durP1;ratioP1;P1;durP2;ratioP2;P2;SDS_P1;SDS_P2;PMS_P1;PMS_P2;Temp;Humidity;BMP_temperature;BMP_pressure;BME280_temperature;BME280_humidity;BME280_pressure;Samples;Min_cycle;Max_cycle;Signal;HPM_P1;HPM_P2
2023/11/10 00:00:10;;;;;;;;;;;8.70;99.90;;;;;;5058509;28;19964;-78
2023/11/10 00:02:37;;;;;;;;;;;8.50;99.90;;;;;;5042929;28;19909;-78
2023/11/10 00:05:03;;;;;;;;;;;8.50;99.90;;;;;;5041476;28;20360;-77
2023/11/10 00:07:30;;;;;;;;;;;8.70;99.90;;;;;;5044464;28;19915;-78
2023/11/10 00:09:56;;;;;;;;;;;8.70;99.90;;;;;;5065622;28;20083;-78
2023/11/10 00:12:22;;;;;;;;;;;8.60;99.90;;;;;;5067432;28;19912;-78
2023/11/10 00:14:47;;;;;;;;;;;8.60;99.90;;;;;;5065925;28;19905;-78
2023/11/10 00:17:17;;;;;;;;;;;8.60;99.90;;;;;;5045255;28;19908;-77
2023/11/10 00:19:43;;;;;;;;;;;8.60;99.90;;;;;;5045989;28;19904;-78
2023/11/10 00:22:09;;;;;;;;;;;8.60;99.90;;;;;;5060712;28;19986;-76
2023/11/10 00:24:39;;;;;;;;;;;8.70;99.90;;;;;;5062550;28;19991;-78
2023/11/10 00:27:09;;;;;;;;;;;8.70;99.90;;;;;;5046650;28;19919;-78
2023/11/10 00:29:43;;;;;;;;;;;8.70;99.90;;;;;;5058060;28;20298;-79
2023/11/10 00:32:09;;;;;;;;;;;8.70;99.90;;;;;;5063344;28;20398;-78
2023/11/10 00:34:34;;;;;;;;;;;8.60;99.90;;;;;;5048919;28;19967;-78
2023/11/10 00:37:00;;;;;;;;;;;8.60;99.90;;;;;;5049827;28;20433;-77
2023/11/10 00:39:27;;;;;;;;;;;8.70;99.90;;;;;;5066187;28;20336;-78
2023/11/10 00:41:52;;;;;;;;;;;8.60;99.90;;;;;;5067523;28;19908;-78
2023/11/10 00:44:18;;;;;;;;;;;8.40;99.90;;;;;;5049235;28;20403;-77
2023/11/10 00:46:49;;;;;;;;;;;8.40;99.90;;;;;;5066530;28;19940;-77
2023/11/10 00:49:16;;;;;;;;;;;8.40;99.90;;;;;;5049962;28;19975;-79
2023/11/10 00:51:45;;;;;;;;;;;8.40;99.90;;;;;;5050647;28;19928;-78
2023/11/10 00:54:12;;;;;;;;;;;8.40;99.90;;;;;;5067282;28;19935;-78
2023/11/10 00:56:38;;;;;;;;;;;8.30;99.90;;;;;;5063478;28;19908;-77
2023/11/10 00:59:03;;;;;;;;;;;8.20;99.90;;;;;;5061767;28;19912;-77
2023/11/10 01:01:33;;;;;;;;;;;8.30;99.90;;;;;;5046431;28;19905;-78
2023/11/10 01:04:01;;;;;;;;;;;8.20;99.90;;;;;;5053320;28;20369;-78
2023/11/10 01:06:28;;;;;;;;;;;8.10;99.90;;;;;;5052707;28;19921;-78
2023/11/10 01:08:54;;;;;;;;;;;8.10;99.90;;;;;;5070460;28;19908;-78
2023/11/10 01:11:20;;;;;;;;;;;8.30;99.90;;;;;;5051425;28;19904;-78
2023/11/10 01:13:45;;;;;;;;;;;8.30;99.90;;;;;;5052293;28;19905;-78
2023/11/10 01:16:12;;;;;;;;;;;8.10;99.90;;;;;;5051650;28;19911;-79
2023/11/10 01:18:38;;;;;;;;;;;8.00;99.90;;;;;;5050273;28;19904;-78
2023/11/10 01:21:04;;;;;;;;;;;7.90;99.90;;;;;;5050764;28;19962;-79
2023/11/10 01:23:29;;;;;;;;;;;7.80;99.90;;;;;;5066566;28;19904;-78
2023/11/10 01:25:55;;;;;;;;;;;7.80;99.90;;;;;;5061618;28;19923;-78
2023/11/10 01:28:20;;;;;;;;;;;7.90;99.90;;;;;;5059517;28;19909;-76
2023/11/10 01:30:46;;;;;;;;;;;7.80;99.90;;;;;;5060194;28;19951;-77
2023/11/10 01:33:16;;;;;;;;;;;7.80;99.90;;;;;;5065722;28;20529;-77
2023/11/10 01:35:42;;;;;;;;;;;7.30;99.90;;;;;;5065782;28;19912;-79
2023/11/10 01:38:09;;;;;;;;;;;7.60;99.90;;;;;;5062889;28;19912;-78
2023/11/10 01:40:39;;;;;;;;;;;7.60;99.90;;;;;;5043705;28;19905;-77
2023/11/10 01:43:08;;;;;;;;;;;7.50;99.90;;;;;;5043033;28;19912;-77
2023/11/10 01:45:33;;;;;;;;;;;7.50;99.90;;;;;;5058149;28;19927;-77
2023/11/10 01:48:04;;;;;;;;;;;7.60;99.90;;;;;;5063320;28;19909;-78
2023/11/10 01:50:31;;;;;;;;;;;7.50;99.90;;;;;;5044676;28;20368;-78
2023/11/10 01:52:58;;;;;;;;;;;7.50;99.90;;;;;;5043281;28;19905;-77
2023/11/10 01:55:24;;;;;;;;;;;7.50;99.90;;;;;;5043743;28;19995;-77
2023/11/10 01:57:50;;;;;;;;;;;7.60;99.90;;;;;;5068888;28;19912;-77
2023/11/10 02:00:17;;;;;;;;;;;7.60;99.90;;;;;;5069131;28;20285;-78
2023/11/10 02:02:55;;;;;;;;;;;7.50;99.90;;;;;;5054075;28;19912;-79
2023/11/10 02:05:27;;;;;;;;;;;7.50;99.90;;;;;;5073919;28;19916;-79
2023/11/10 02:07:55;;;;;;;;;;;7.50;99.90;;;;;;5074150;28;19896;-79
2023/11/10 02:10:21;;;;;;;;;;;7.50;99.90;;;;;;5064963;28;19905;-78
2023/11/10 02:12:54;;;;;;;;;;;7.50;99.90;;;;;;5065235;28;20026;-78
2023/11/10 02:15:20;;;;;;;;;;;7.50;99.90;;;;;;5065141;28;19905;-77
2023/11/10 02:17:47;;;;;;;;;;;7.50;99.90;;;;;;5062903;28;19912;-78
2023/11/10 02:20:13;;;;;;;;;;;7.30;99.90;;;;;;5048935;28;19952;-78
2023/11/10 02:22:42;;;;;;;;;;;7.40;99.90;;;;;;5045720;28;19936;-77
2023/11/10 02:25:12;;;;;;;;;;;7.30;99.90;;;;;;5064962;28;20427;-80
2023/11/10 02:27:38;;;;;;;;;;;7.10;99.90;;;;;;5062502;28;19955;-80
2023/11/10 02:30:16;;;;;;;;;;;7.30;99.90;;;;;;5068396;28;19905;-80
2023/11/10 02:32:43;;;;;;;;;;;7.30;99.90;;;;;;5055767;28;19928;-79
2023/11/10 02:35:09;;;;;;;;;;;7.10;99.90;;;;;;5048965;28;19916;-77
2023/11/10 02:37:41;;;;;;;;;;;7.00;99.90;;;;;;5058882;28;19909;-78
2023/11/10 02:40:08;;;;;;;;;;;7.10;99.90;;;;;;5043054;28;19932;-77
2023/11/10 02:42:34;;;;;;;;;;;7.10;99.90;;;;;;5042208;28;19912;-78
2023/11/10 02:45:00;;;;;;;;;;;7.10;99.90;;;;;;5042311;28;19905;-77
2023/11/10 02:47:26;;;;;;;;;;;7.30;99.90;;;;;;5042818;28;19994;-78
2023/11/10 02:49:51;;;;;;;;;;;7.20;99.90;;;;;;5059565;28;20352;-77
2023/11/10 02:52:17;;;;;;;;;;;7.00;99.90;;;;;;5061050;28;19995;-78
2023/11/10 02:54:43;;;;;;;;;;;7.20;99.90;;;;;;5059554;28;19912;-78
2023/11/10 02:57:09;;;;;;;;;;;7.20;99.90;;;;;;5042705;28;19908;-77
2023/11/10 02:59:35;;;;;;;;;;;7.10;99.90;;;;;;5060158;28;19916;-77
2023/11/10 03:02:01;;;;;;;;;;;7.60;99.90;;;;;;5042491;28;19905;-77
2023/11/10 03:04:27;;;;;;;;;;;7.30;99.90;;;;;;5042167;28;20321;-78
2023/11/10 03:06:54;;;;;;;;;;;7.00;99.90;;;;;;5059033;28;19913;-80
2023/11/10 03:09:19;;;;;;;;;;;7.00;99.90;;;;;;5042200;28;19911;-78
2023/11/10 03:11:45;;;;;;;;;;;6.90;99.90;;;;;;5058683;28;20296;-77
2023/11/10 03:14:10;;;;;;;;;;;6.80;99.90;;;;;;5059081;28;19905;-78
2023/11/10 03:16:42;;;;;;;;;;;6.80;99.90;;;;;;5064715;28;19908;-79
2023/11/10 03:19:28;;;;;;;;;;;6.80;99.90;;;;;;5062899;28;19905;-78
2023/11/10 03:21:56;;;;;;;;;;;6.90;99.90;;;;;;5068836;28;19904;-78
2023/11/10 03:24:26;;;;;;;;;;;6.90;99.90;;;;;;5049642;28;19905;-78
2023/11/10 03:26:52;;;;;;;;;;;6.90;99.90;;;;;;5048214;28;19912;-79
2023/11/10 03:29:17;;;;;;;;;;;7.00;99.90;;;;;;5064277;28;19905;-78
2023/11/10 03:31:43;;;;;;;;;;;7.00;99.90;;;;;;5059066;28;20488;-78
2023/11/10 03:34:09;;;;;;;;;;;6.90;99.90;;;;;;5048624;28;19909;-80
2023/11/10 03:36:36;;;;;;;;;;;6.80;99.90;;;;;;5044097;28;20005;-78
2023/11/10 03:39:03;;;;;;;;;;;6.90;99.90;;;;;;5062889;28;19920;-78
2023/11/10 03:41:30;;;;;;;;;;;6.80;99.90;;;;;;5044140;28;19944;-77
2023/11/10 03:43:57;;;;;;;;;;;6.70;99.90;;;;;;5060668;28;19952;-77
2023/11/10 03:46:22;;;;;;;;;;;6.70;99.90;;;;;;5058314;28;19920;-78
2023/11/10 03:48:48;;;;;;;;;;;6.70;99.90;;;;;;5042397;28;19947;-78
2023/11/10 03:51:15;;;;;;;;;;;6.60;99.90;;;;;;5058972;28;20312;-76
2023/11/10 03:53:41;;;;;;;;;;;6.60;99.90;;;;;;5059436;28;19936;-78
2023/11/10 03:56:08;;;;;;;;;;;6.60;99.90;;;;;;5059032;28;19916;-78
2023/11/10 03:58:34;;;;;;;;;;;6.60;99.90;;;;;;5057944;28;19904;-78
2023/11/10 04:01:00;;;;;;;;;;;7.10;99.90;;;;;;5060002;28;19915;-78
2023/11/10 04:03:26;;;;;;;;;;;6.60;99.90;;;;;;5060632;28;19905;-77
2023/11/10 04:05:51;;;;;;;;;;;6.60;99.90;;;;;;5059629;28;19984;-79
2023/11/10 04:08:20;;;;;;;;;;;6.50;99.90;;;;;;5064721;28;19963;-79
2023/11/10 04:10:47;;;;;;;;;;;6.40;99.90;;;;;;5054180;28;19911;-78
2023/11/10 04:13:12;;;;;;;;;;;6.30;99.90;;;;;;5029165;28;19915;-78
2023/11/10 04:15:39;;;;;;;;;;;6.50;99.90;;;;;;5044352;28;19905;-78
2023/11/10 04:18:06;;;;;;;;;;;6.40;99.90;;;;;;5061548;28;19912;-77
2023/11/10 04:20:34;;;;;;;;;;;6.50;99.90;;;;;;5040047;28;19911;-77
2023/11/10 04:23:03;;;;;;;;;;;6.70;99.90;;;;;;5059738;28;19912;-79
2023/11/10 04:25:29;;;;;;;;;;;6.40;99.90;;;;;;5069503;28;19915;-79
2023/11/10 04:27:56;;;;;;;;;;;6.50;99.90;;;;;;5063547;28;19908;-78
2023/11/10 04:30:30;;;;;;;;;;;6.70;99.90;;;;;;5053092;28;19915;-79
2023/11/10 04:32:58;;;;;;;;;;;6.40;99.90;;;;;;5066524;28;19904;-78
2023/11/10 04:36:00;;;;;;;;;;;6.40;99.90;;;;;;5071156;28;19908;-78
2023/11/10 04:38:28;;;;;;;;;;;6.30;99.90;;;;;;5052800;28;19915;-78
2023/11/10 04:40:55;;;;;;;;;;;6.20;99.90;;;;;;5051772;28;19915;-77
2023/11/10 04:43:21;;;;;;;;;;;6.20;99.90;;;;;;5057799;28;19904;-78
2023/11/10 04:45:47;;;;;;;;;;;6.20;99.90;;;;;;5060393;28;19924;-78
2023/11/10 04:48:13;;;;;;;;;;;6.20;99.90;;;;;;5047156;28;19905;-78
2023/11/10 04:50:43;;;;;;;;;;;6.20;99.90;;;;;;5068013;28;19915;-78
2023/11/10 04:53:09;;;;;;;;;;;6.30;99.90;;;;;;5051069;28;19942;-79
2023/11/10 04:55:34;;;;;;;;;;;6.30;99.90;;;;;;5068410;28;19909;-78
2023/11/10 04:58:02;;;;;;;;;;;6.30;99.90;;;;;;5035235;28;19909;-79
2023/11/10 05:00:33;;;;;;;;;;;6.40;99.90;;;;;;5054269;28;19908;-79
2023/11/10 05:03:06;;;;;;;;;;;6.30;99.90;;;;;;5053318;28;19904;-80
2023/11/10 05:05:31;;;;;;;;;;;6.30;99.90;;;;;;5058215;28;20389;-79
2023/11/10 05:07:57;;;;;;;;;;;6.30;99.90;;;;;;5058155;28;19916;-78
2023/11/10 05:10:22;;;;;;;;;;;6.30;99.90;;;;;;5058146;28;19916;-79
2023/11/10 05:12:51;;;;;;;;;;;6.30;99.90;;;;;;5058771;28;19905;-77
2023/11/10 05:15:17;;;;;;;;;;;6.40;99.90;;;;;;5059154;28;19909;-77
2023/11/10 05:17:43;;;;;;;;;;;6.60;99.90;;;;;;5061832;28;19908;-79
2023/11/10 05:20:13;;;;;;;;;;;6.00;99.90;;;;;;5061043;28;20340;-78
2023/11/10 05:22:40;;;;;;;;;;;6.00;99.90;;;;;;5045201;28;19975;-78
2023/11/10 05:25:07;;;;;;;;;;;6.00;99.90;;;;;;5063055;28;19915;-78
2023/11/10 05:27:33;;;;;;;;;;;6.10;99.90;;;;;;5046159;28;20003;-78
2023/11/10 05:30:06;;;;;;;;;;;6.10;99.90;;;;;;5045852;28;19951;-78
2023/11/10 05:32:32;;;;;;;;;;;6.20;99.90;;;;;;5047157;28;19909;-79
2023/11/10 05:35:01;;;;;;;;;;;6.20;99.90;;;;;;5067338;28;19986;-78
2023/11/10 05:37:27;;;;;;;;;;;5.70;99.90;;;;;;5047269;28;19916;-78
2023/11/10 05:39:53;;;;;;;;;;;6.20;99.90;;;;;;5064247;28;19909;-78
2023/11/10 05:42:22;;;;;;;;;;;6.10;99.90;;;;;;5043887;28;19905;-78
2023/11/10 05:44:48;;;;;;;;;;;6.20;99.90;;;;;;5064678;28;19915;-79
2023/11/10 05:47:14;;;;;;;;;;;6.30;99.90;;;;;;5064605;28;19913;-79
2023/11/10 05:49:41;;;;;;;;;;;6.20;99.90;;;;;;5066180;28;19936;-78
2023/11/10 05:52:06;;;;;;;;;;;6.20;99.90;;;;;;5057332;28;19915;-79
2023/11/10 05:54:32;;;;;;;;;;;6.10;99.90;;;;;;5067055;28;19955;-79
2023/11/10 05:56:58;;;;;;;;;;;6.10;99.90;;;;;;5067305;28;20411;-80
2023/11/10 05:59:25;;;;;;;;;;;6.10;99.90;;;;;;5066732;28;19974;-79
2023/11/10 06:01:50;;;;;;;;;;;6.10;99.90;;;;;;5085003;28;19936;-79
2023/11/10 06:04:16;;;;;;;;;;;6.30;99.90;;;;;;5084729;28;20384;-78
2023/11/10 06:06:43;;;;;;;;;;;6.40;99.90;;;;;;5064011;28;19917;-78
2023/11/10 06:09:13;;;;;;;;;;;6.30;99.90;;;;;;5082606;28;19904;-78
2023/11/10 06:11:38;;;;;;;;;;;6.30;99.90;;;;;;5065981;28;19911;-78
2023/11/10 06:14:05;;;;;;;;;;;6.20;99.90;;;;;;5084635;28;19936;-78
2023/11/10 06:16:31;;;;;;;;;;;6.40;99.90;;;;;;5084333;28;19999;-79
2023/11/10 06:18:57;;;;;;;;;;;6.40;99.90;;;;;;5066780;28;19912;-79
2023/11/10 06:21:23;;;;;;;;;;;6.40;99.90;;;;;;5066530;28;19904;-79
2023/11/10 06:23:53;;;;;;;;;;;6.50;99.90;;;;;;5066250;28;20380;-78
2023/11/10 06:26:20;;;;;;;;;;;6.70;99.90;;;;;;5065725;28;19987;-77
2023/11/10 06:28:46;;;;;;;;;;;6.90;99.90;;;;;;5065635;28;19908;-79
2023/11/10 06:31:13;;;;;;;;;;;6.70;99.90;;;;;;5065897;28;20360;-77
2023/11/10 06:33:39;;;;;;;;;;;7.00;99.90;;;;;;5066385;28;19909;-78
2023/11/10 06:36:05;;;;;;;;;;;6.80;99.90;;;;;;5066510;28;19904;-79
2023/11/10 06:38:31;;;;;;;;;;;7.00;99.90;;;;;;5079401;28;19908;-78
2023/11/10 06:40:56;;;;;;;;;;;7.20;99.90;;;;;;5083850;28;19919;-78
2023/11/10 06:43:22;;;;;;;;;;;7.20;99.90;;;;;;5084735;28;19943;-78
2023/11/10 06:45:50;;;;;;;;;;;7.50;99.90;;;;;;5082068;28;19920;-78
2023/11/10 06:48:16;;;;;;;;;;;7.70;99.90;;;;;;5063556;28;19909;-78
2023/11/10 06:50:42;;;;;;;;;;;7.90;99.90;;;;;;5062659;28;19905;-78
2023/11/10 06:53:10;;;;;;;;;;;8.00;99.90;;;;;;5061986;28;19940;-77
2023/11/10 06:55:36;;;;;;;;;;;7.90;99.90;;;;;;5063717;28;19911;-79
2023/11/10 06:58:02;;;;;;;;;;;8.10;99.90;;;;;;5062381;28;19999;-78
2023/11/10 07:00:29;;;;;;;;;;;8.20;99.90;;;;;;5093645;28;19939;-79
2023/11/10 07:02:56;;;;;;;;;;;8.30;99.90;;;;;;5062333;28;19908;-78
2023/11/10 07:05:22;;;;;;;;;;;8.30;99.90;;;;;;5065368;28;20429;-79
2023/11/10 07:07:48;;;;;;;;;;;8.70;99.90;;;;;;5063904;28;20006;-77
2023/11/10 07:10:13;;;;;;;;;;;9.00;99.90;;;;;;5060898;28;19917;-78
2023/11/10 07:12:39;;;;;;;;;;;9.20;99.90;;;;;;5078643;28;19908;-78
2023/11/10 07:15:05;;;;;;;;;;;9.30;99.90;;;;;;5078260;28;20399;-78
2023/11/10 07:17:31;;;;;;;;;;;9.30;99.90;;;;;;5055196;28;19911;-78
2023/11/10 07:19:57;;;;;;;;;;;9.40;99.90;;;;;;5076479;28;19916;-76
2023/11/10 07:22:22;;;;;;;;;;;9.10;99.90;;;;;;5059376;28;19915;-78
2023/11/10 07:24:48;;;;;;;;;;;9.20;99.90;;;;;;5062401;28;19953;-78
2023/11/10 07:27:14;;;;;;;;;;;9.00;99.90;;;;;;5078894;28;20010;-77
2023/11/10 07:29:40;;;;;;;;;;;9.30;99.90;;;;;;5060067;28;19915;-77
2023/11/10 07:32:06;;;;;;;;;;;9.00;99.90;;;;;;5076183;28;19915;-79
2023/11/10 07:34:31;;;;;;;;;;;9.30;99.90;;;;;;5078597;28;20006;-77
2023/11/10 07:36:58;;;;;;;;;;;9.50;99.90;;;;;;5077032;28;19909;-78
2023/11/10 07:39:26;;;;;;;;;;;9.60;99.90;;;;;;5078536;28;20273;-77
2023/11/10 07:41:52;;;;;;;;;;;9.60;99.90;;;;;;5077770;28;19905;-77
2023/11/10 07:44:18;;;;;;;;;;;9.90;99.90;;;;;;5080606;28;19958;-78
2023/11/10 07:46:45;;;;;;;;;;;10.20;99.90;;;;;;5061099;28;20019;-79
2023/11/10 07:49:11;;;;;;;;;;;10.30;99.90;;;;;;5062681;28;19915;-79
2023/11/10 07:51:36;;;;;;;;;;;10.40;99.90;;;;;;5063814;28;19905;-78
2023/11/10 07:54:02;;;;;;;;;;;10.40;99.90;;;;;;5061092;28;20377;-80
2023/11/10 07:56:27;;;;;;;;;;;10.50;99.90;;;;;;5060718;28;20377;-78
2023/11/10 07:58:53;;;;;;;;;;;10.30;99.90;;;;;;5060799;28;19904;-78
2023/11/10 08:01:19;;;;;;;;;;;10.20;99.90;;;;;;5068597;28;19905;-78
2023/11/10 08:03:44;;;;;;;;;;;10.00;99.90;;;;;;5039718;28;19909;-77
2023/11/10 08:06:10;;;;;;;;;;;10.00;99.90;;;;;;5041444;28;19909;-78
2023/11/10 08:08:36;;;;;;;;;;;10.10;99.90;;;;;;5055173;28;19909;-78
2023/11/10 08:11:01;;;;;;;;;;;10.10;99.90;;;;;;5033371;28;19916;-77
2023/11/10 08:13:27;;;;;;;;;;;10.40;99.90;;;;;;5037285;28;19912;-78
2023/11/10 08:15:53;;;;;;;;;;;10.70;99.90;;;;;;5044152;28;19908;-77
2023/11/10 08:18:18;;;;;;;;;;;11.10;99.90;;;;;;5057921;28;19909;-77
2023/11/10 08:20:44;;;;;;;;;;;11.30;99.90;;;;;;5054816;28;20262;-77
2023/11/10 08:23:10;;;;;;;;;;;11.30;99.90;;;;;;5034341;28;19908;-79
2023/11/10 08:25:36;;;;;;;;;;;11.00;99.90;;;;;;5038323;28;20337;-77
2023/11/10 08:28:04;;;;;;;;;;;11.00;99.90;;;;;;5059839;28;19947;-77
2023/11/10 08:30:32;;;;;;;;;;;11.10;99.90;;;;;;5057178;28;19916;-77
2023/11/10 08:32:59;;;;;;;;;;;11.10;99.90;;;;;;5037975;28;19996;-80
2023/11/10 08:35:25;;;;;;;;;;;10.70;99.90;;;;;;5056745;28;19909;-78
2023/11/10 08:37:51;;;;;;;;;;;10.70;99.90;;;;;;5040097;28;20340;-78
2023/11/10 08:40:16;;;;;;;;;;;10.50;99.90;;;;;;5040547;28;19912;-77
2023/11/10 08:42:42;;;;;;;;;;;10.40;99.90;;;;;;5062676;28;19966;-79
2023/11/10 08:45:08;;;;;;;;;;;10.40;99.90;;;;;;5063923;28;19921;-79
2023/11/10 08:47:34;;;;;;;;;;;10.50;99.90;;;;;;5063750;28;19943;-78
2023/11/10 08:50:01;;;;;;;;;;;10.60;99.90;;;;;;5062655;28;19912;-78
2023/11/10 08:52:28;;;;;;;;;;;10.30;99.90;;;;;;5083827;28;20390;-79
2023/11/10 08:54:55;;;;;;;;;;;10.30;99.90;;;;;;5067791;28;19949;-78
2023/11/10 08:57:20;;;;;;;;;;;10.30;99.90;;;;;;5083420;28;19905;-78
2023/11/10 08:59:48;;;;;;;;;;;10.10;99.90;;;;;;5067497;28;20336;-78
2023/11/10 09:02:14;;;;;;;;;;;10.00;99.90;;;;;;5063978;28;19915;-77
2023/11/10 09:04:39;;;;;;;;;;;10.10;99.90;;;;;;5084502;28;19904;-78
2023/11/10 09:07:05;;;;;;;;;;;10.00;99.90;;;;;;5068209;28;19916;-79
2023/11/10 09:09:31;;;;;;;;;;;10.10;99.90;;;;;;5085157;28;20232;-77
2023/11/10 09:11:57;;;;;;;;;;;10.10;99.90;;;;;;5084783;28;19919;-78
2023/11/10 09:14:23;;;;;;;;;;;10.10;99.90;;;;;;5067282;28;19948;-78
2023/11/10 09:16:49;;;;;;;;;;;10.20;99.90;;;;;;5066724;28;19952;-77
2023/11/10 09:19:15;;;;;;;;;;;10.20;99.90;;;;;;5083842;28;20553;-78
2023/11/10 09:21:42;;;;;;;;;;;10.20;99.90;;;;;;5066344;28;19940;-78
2023/11/10 09:24:08;;;;;;;;;;;10.10;99.90;;;;;;5084343;28;19912;-78
2023/11/10 09:26:33;;;;;;;;;;;10.30;99.90;;;;;;5083776;28;19954;-78
2023/11/10 09:28:59;;;;;;;;;;;10.20;99.90;;;;;;5084629;28;19943;-77
2023/11/10 09:31:25;;;;;;;;;;;10.10;99.90;;;;;;5066097;28;19911;-78
2023/11/10 09:33:53;;;;;;;;;;;10.30;99.90;;;;;;5066794;28;19911;-78
2023/11/10 09:36:19;;;;;;;;;;;10.20;99.90;;;;;;5084492;28;19909;-78
2023/11/10 09:38:44;;;;;;;;;;;10.50;99.90;;;;;;5084334;28;19904;-78
2023/11/10 09:41:14;;;;;;;;;;;10.60;99.90;;;;;;5084867;28;19995;-78
2023/11/10 09:43:40;;;;;;;;;;;10.90;99.90;;;;;;5066025;28;19904;-78
2023/11/10 09:46:07;;;;;;;;;;;11.00;99.90;;;;;;5064994;28;19916;-79
2023/11/10 09:48:33;;;;;;;;;;;10.90;99.90;;;;;;5066332;28;20050;-77
2023/11/10 09:50:59;;;;;;;;;;;10.90;99.90;;;;;;5065755;28;19987;-78
2023/11/10 09:53:25;;;;;;;;;;;10.90;99.90;;;;;;5066555;28;19911;-78
2023/11/10 09:55:51;;;;;;;;;;;11.00;99.90;;;;;;5065749;28;19905;-78
2023/11/10 09:58:18;;;;;;;;;;;10.90;99.90;;;;;;5065674;28;19912;-78
2023/11/10 10:00:47;;;;;;;;;;;10.90;99.90;;;;;;5065704;28;19912;-77
2023/11/10 10:03:12;;;;;;;;;;;10.80;99.90;;;;;;5065555;28;19904;-78
2023/11/10 10:05:38;;;;;;;;;;;10.70;99.90;;;;;;5065916;28;20011;-78
2023/11/10 10:08:04;;;;;;;;;;;10.70;99.90;;;;;;5065047;28;19904;-78
2023/11/10 10:10:29;;;;;;;;;;;10.60;99.90;;;;;;5085680;28;19908;-78
2023/11/10 10:12:56;;;;;;;;;;;10.60;99.90;;;;;;5084830;28;19947;-78
2023/11/10 10:15:29;;;;;;;;;;;10.60;99.90;;;;;;5064828;28;20422;-78
2023/11/10 10:18:02;;;;;;;;;;;10.40;99.90;;;;;;5082140;28;19912;-77
2023/11/10 10:20:28;;;;;;;;;;;10.20;99.90;;;;;;5082200;28;20024;-78
2023/11/10 10:22:54;;;;;;;;;;;10.30;99.90;;;;;;5081734;28;20341;-77
2023/11/10 10:25:20;;;;;;;;;;;10.40;99.90;;;;;;5064602;28;19904;-78
2023/11/10 10:27:46;;;;;;;;;;;10.50;99.90;;;;;;5081846;28;19913;-78
2023/11/10 10:30:12;;;;;;;;;;;10.40;99.90;;;;;;5046318;28;19912;-77
2023/11/10 10:32:38;;;;;;;;;;;10.40;99.90;;;;;;5064307;28;20334;-78
2023/11/10 10:35:04;;;;;;;;;;;10.50;99.90;;;;;;5082582;28;19944;-77
2023/11/10 10:37:31;;;;;;;;;;;10.50;99.90;;;;;;5064993;28;19920;-78
2023/11/10 10:40:00;;;;;;;;;;;10.50;99.90;;;;;;5064103;28;19985;-77
2023/11/10 10:42:28;;;;;;;;;;;10.50;99.90;;;;;;5083803;28;19908;-79
2023/11/10 10:44:55;;;;;;;;;;;10.30;99.90;;;;;;5064927;28;19957;-77
2023/11/10 10:47:21;;;;;;;;;;;10.60;99.90;;;;;;5083359;28;19925;-78
2023/11/10 10:49:48;;;;;;;;;;;10.40;99.90;;;;;;5082802;28;19904;-77
2023/11/10 10:52:16;;;;;;;;;;;10.20;99.90;;;;;;5063535;28;19927;-77
2023/11/10 10:54:42;;;;;;;;;;;10.20;99.90;;;;;;5064162;28;19994;-77
2023/11/10 10:57:09;;;;;;;;;;;10.10;99.90;;;;;;5048350;28;19923;-78
2023/11/10 10:59:36;;;;;;;;;;;10.20;99.90;;;;;;5064654;28;19911;-78
2023/11/10 11:02:03;;;;;;;;;;;10.10;99.90;;;;;;5080827;28;19940;-78
2023/11/10 11:04:29;;;;;;;;;;;10.10;99.90;;;;;;5055588;28;19905;-77
2023/11/10 11:07:13;;;;;;;;;;;10.10;99.90;;;;;;5062188;28;19942;-78
2023/11/10 11:09:47;;;;;;;;;;;10.20;99.90;;;;;;5083048;28;19930;-78
2023/11/10 11:12:31;;;;;;;;;;;10.00;99.90;;;;;;5082617;28;19905;-82
2023/11/10 11:15:03;;;;;;;;;;;9.90;99.90;;;;;;5083179;28;19927;-79
2023/11/10 11:17:43;;;;;;;;;;;9.80;99.90;;;;;;5075819;28;19999;-80
2023/11/10 11:20:12;;;;;;;;;;;9.80;99.90;;;;;;5062719;28;19927;-79
2023/11/10 11:22:38;;;;;;;;;;;9.80;99.90;;;;;;5062408;28;19977;-78
2023/11/10 11:25:08;;;;;;;;;;;10.00;99.90;;;;;;5066721;28;20444;-79
2023/11/10 11:27:34;;;;;;;;;;;9.90;99.90;;;;;;5060816;28;19919;-78
2023/11/10 11:30:11;;;;;;;;;;;10.00;99.90;;;;;;5060917;28;19911;-78
2023/11/10 11:32:40;;;;;;;;;;;10.20;99.90;;;;;;5028105;28;20425;-78
2023/11/10 11:35:10;;;;;;;;;;;10.10;99.90;;;;;;5029185;28;19915;-78
2023/11/10 11:37:37;;;;;;;;;;;10.10;99.90;;;;;;5061889;28;19905;-78
2023/11/10 11:40:05;;;;;;;;;;;10.00;99.90;;;;;;5061037;28;19959;-78
2023/11/10 11:42:35;;;;;;;;;;;9.80;99.90;;;;;;5044858;28;19931;-79
2023/11/10 11:45:03;;;;;;;;;;;9.90;99.90;;;;;;5044464;28;19991;-79
2023/11/10 11:47:31;;;;;;;;;;;10.00;99.90;;;;;;5062981;28;20335;-78
2023/11/10 11:49:57;;;;;;;;;;;10.00;99.90;;;;;;5062667;28;20161;-79
2023/11/10 11:52:23;;;;;;;;;;;10.00;99.90;;;;;;5062140;28;20269;-78
2023/11/10 11:54:48;;;;;;;;;;;9.90;99.90;;;;;;5064913;28;19909;-80
2023/11/10 11:57:14;;;;;;;;;;;10.00;99.90;;;;;;5061404;28;19905;-77
2023/11/10 11:59:40;;;;;;;;;;;9.90;99.90;;;;;;5061546;28;19911;-78
2023/11/10 12:02:07;;;;;;;;;;;9.90;99.90;;;;;;5060746;28;19960;-79
2023/11/10 12:04:32;;;;;;;;;;;9.70;99.90;;;;;;5063178;28;19962;-78
2023/11/10 12:06:58;;;;;;;;;;;9.90;99.90;;;;;;5068934;28;20333;-79
2023/11/10 12:09:26;;;;;;;;;;;9.90;99.90;;;;;;5081074;28;19904;-78
2023/11/10 12:11:52;;;;;;;;;;;9.70;99.90;;;;;;5083007;28;19909;-77
2023/11/10 12:14:20;;;;;;;;;;;9.70;99.90;;;;;;5064004;28;19939;-78
2023/11/10 12:16:46;;;;;;;;;;;9.70;99.90;;;;;;5045919;28;20013;-79
2023/11/10 12:19:12;;;;;;;;;;;9.70;99.90;;;;;;5083627;28;19904;-79
2023/11/10 12:21:38;;;;;;;;;;;9.90;99.90;;;;;;5076942;28;19918;-78
2023/11/10 12:24:05;;;;;;;;;;;10.00;99.90;;;;;;5064298;28;19948;-78
2023/11/10 12:26:49;;;;;;;;;;;9.80;99.90;;;;;;5065766;28;19917;-78
2023/11/10 12:29:17;;;;;;;;;;;9.80;99.90;;;;;;5067701;28;19915;-79
2023/11/10 12:31:43;;;;;;;;;;;10.00;99.90;;;;;;5067837;28;19947;-79
2023/11/10 12:34:08;;;;;;;;;;;9.80;99.90;;;;;;5071213;28;19905;-80
2023/11/10 12:36:35;;;;;;;;;;;9.80;99.90;;;;;;5076662;28;19964;-78
2023/11/10 12:39:02;;;;;;;;;;;9.80;99.90;;;;;;5050595;28;19904;-79
2023/11/10 12:41:28;;;;;;;;;;;9.70;99.90;;;;;;5068084;28;19912;-78
2023/11/10 12:43:57;;;;;;;;;;;9.70;99.90;;;;;;5049637;28;19889;-79
2023/11/10 12:46:23;;;;;;;;;;;9.90;99.90;;;;;;5065105;28;19917;-78
2023/11/10 12:48:55;;;;;;;;;;;9.80;99.90;;;;;;5048006;28;19905;-79
2023/11/10 12:51:27;;;;;;;;;;;9.70;99.90;;;;;;5065713;28;19974;-78
2023/11/10 12:54:05;;;;;;;;;;;9.40;99.90;;;;;;5068401;28;19905;-79
2023/11/10 12:56:31;;;;;;;;;;;9.40;99.90;;;;;;5056548;28;19909;-78
2023/11/10 12:59:03;;;;;;;;;;;9.40;99.90;;;;;;5080794;28;19909;-79
2023/11/10 13:01:30;;;;;;;;;;;9.60;99.90;;;;;;5068377;28;19939;-78
2023/11/10 13:03:56;;;;;;;;;;;9.60;99.90;;;;;;5068052;28;19937;-78
2023/11/10 13:06:21;;;;;;;;;;;9.60;99.90;;;;;;5067421;28;19983;-78
2023/11/10 13:08:47;;;;;;;;;;;9.50;99.90;;;;;;5085671;28;19967;-78
2023/11/10 13:11:13;;;;;;;;;;;9.50;99.90;;;;;;5068444;28;19905;-79
2023/11/10 13:13:39;;;;;;;;;;;9.40;99.90;;;;;;5065882;28;19976;-79
2023/11/10 13:16:07;;;;;;;;;;;9.60;99.90;;;;;;5078175;28;19908;-79
2023/11/10 13:18:33;;;;;;;;;;;9.40;99.90;;;;;;5089434;28;19958;-78
2023/11/10 13:20:58;;;;;;;;;;;9.50;99.90;;;;;;5070333;28;19908;-80
2023/11/10 13:23:26;;;;;;;;;;;9.20;99.90;;;;;;5080603;28;19909;-79
2023/11/10 13:25:53;;;;;;;;;;;9.40;99.90;;;;;;5066255;28;19909;-79
2023/11/10 13:28:19;;;;;;;;;;;9.30;99.90;;;;;;5048544;28;19963;-78
2023/11/10 13:30:45;;;;;;;;;;;9.30;99.90;;;;;;5050641;28;20416;-77
2023/11/10 13:33:11;;;;;;;;;;;9.10;99.90;;;;;;5068607;28;19905;-79
2023/11/10 13:35:36;;;;;;;;;;;9.10;99.90;;;;;;5061762;28;19975;-78
2023/11/10 13:38:02;;;;;;;;;;;9.00;99.90;;;;;;5052359;28;19935;-79
2023/11/10 13:40:27;;;;;;;;;;;8.90;99.90;;;;;;5050424;28;19908;-78
2023/11/10 13:42:53;;;;;;;;;;;9.00;99.90;;;;;;5067848;28;19905;-79
2023/11/10 13:45:19;;;;;;;;;;;9.10;99.90;;;;;;5066737;28;19961;-80
2023/11/10 13:47:44;;;;;;;;;;;9.00;99.90;;;;;;5067533;28;19936;-78
2023/11/10 13:50:11;;;;;;;;;;;8.90;99.90;;;;;;5067014;28;19916;-78
2023/11/10 13:52:37;;;;;;;;;;;8.80;99.90;;;;;;5068697;28;19905;-78
2023/11/10 13:55:04;;;;;;;;;;;8.80;99.90;;;;;;5067629;28;20332;-79
2023/11/10 13:57:30;;;;;;;;;;;9.00;99.90;;;;;;5064757;28;19905;-79
2023/11/10 13:59:56;;;;;;;;;;;9.20;99.90;;;;;;5068302;28;20399;-78
2023/11/10 14:02:21;;;;;;;;;;;9.20;99.90;;;;;;5085997;28;19904;-77
2023/11/10 14:04:48;;;;;;;;;;;9.10;99.90;;;;;;5069054;28;19909;-79
2023/11/10 14:07:13;;;;;;;;;;;9.00;99.90;;;;;;5067984;28;19909;-79
2023/11/10 14:09:39;;;;;;;;;;;8.90;99.90;;;;;;5087965;28;19976;-80
2023/11/10 14:12:14;;;;;;;;;;;8.90;99.90;;;;;;5067355;28;19916;-78
2023/11/10 14:14:44;;;;;;;;;;;8.90;99.90;;;;;;5061423;28;19932;-78
2023/11/10 14:17:10;;;;;;;;;;;9.10;99.90;;;;;;5066973;28;19915;-79
2023/11/10 14:19:36;;;;;;;;;;;9.00;99.90;;;;;;5067915;28;19991;-79
2023/11/10 14:22:05;;;;;;;;;;;9.00;99.90;;;;;;5068409;28;19909;-78
2023/11/10 14:24:32;;;;;;;;;;;9.10;99.90;;;;;;5085703;28;19904;-78